Time;durP1;ratioP1;P1;durP2;ratioP2;P2;SDS_P1;SDS_P2;PMS_P1;PMS_P2;Temp;Humidity;BMP_temperature;BMP_pressure;BME280_temperature;BME280_humidity;BME280_pressure;Samples;Min_cycle;Max_cycle;Signal;HPM_P1;HPM_P2
2021/12/25 00:01:25;;;;;;;7.20;3.83;;;;;;;;;;5067901;28;20062;-79
2021/12/25 00:03:52;;;;;;;7.03;3.50;;;;;;;;;;5051446;28;20055;-79
2021/12/25 00:06:18;;;;;;;7.07;3.42;;;;;;;;;;5068098;28;20476;-79
2021/12/25 00:08:45;;;;;;;8.90;3.80;;;;;;;;;;5067798;28;20122;-80
2021/12/25 00:11:11;;;;;;;3.85;1.83;;;;;;;;;;5068953;28;20101;-78
2021/12/25 00:13:41;;;;;;;8.85;3.15;;;;;;;;;;5069220;28;20060;-79
2021/12/25 00:16:08;;;;;;;4.82;2.47;;;;;;;;;;5071644;28;20048;-79
2021/12/25 00:18:35;;;;;;;7.15;2.80;;;;;;;;;;5071277;28;20392;-77
2021/12/25 00:21:01;;;;;;;6.32;2.65;;;;;;;;;;5071794;28;20041;-79
2021/12/25 00:23:27;;;;;;;10.70;2.88;;;;;;;;;;5072733;28;20072;-78
2021/12/25 00:25:59;;;;;;;6.13;2.55;;;;;;;;;;5073057;28;20060;-77
2021/12/25 00:35:58;;;;;;;9.10;3.00;;;;;;;;;;5071641;28;20052;-78
2021/12/25 00:38:25;;;;;;;3.75;1.73;;;;;;;;;;5054705;28;20044;-77
2021/12/25 00:40:51;;;;;;;6.63;2.33;;;;;;;;;;5054974;28;20067;-77
2021/12/25 00:43:17;;;;;;;8.65;3.40;;;;;;;;;;5071679;28;20583;-80
2021/12/25 00:45:43;;;;;;;7.72;3.20;;;;;;;;;;5071349;28;20070;-78
2021/12/25 00:48:09;;;;;;;9.25;3.33;;;;;;;;;;5072768;28;20377;-77
2021/12/25 00:50:35;;;;;;;7.97;2.85;;;;;;;;;;5071191;28;20094;-78
2021/12/25 00:53:01;;;;;;;8.88;2.00;;;;;;;;;;5054480;28;20047;-78
2021/12/25 00:55:27;;;;;;;6.43;2.80;;;;;;;;;;5070918;28;20052;-77
2021/12/25 00:57:53;;;;;;;8.88;2.70;;;;;;;;;;5054502;28;20072;-77
2021/12/25 01:00:20;;;;;;;5.78;2.92;;;;;;;;;;5054316;28;20503;-78
2021/12/25 01:02:47;;;;;;;3.72;1.70;;;;;;;;;;5070740;28;20056;-78
2021/12/25 01:05:14;;;;;;;6.97;2.00;;;;;;;;;;5070866;28;20040;-79
2021/12/25 01:07:41;;;;;;;5.30;1.83;;;;;;;;;;5070778;28;20484;-78
2021/12/25 01:10:09;;;;;;;4.30;1.65;;;;;;;;;;5071913;28;20044;-78
2021/12/25 01:12:52;;;;;;;6.30;1.73;;;;;;;;;;5070325;28;20053;-80
2021/12/25 01:15:24;;;;;;;4.45;1.58;;;;;;;;;;5070854;28;20517;-79
2021/12/25 01:18:15;;;;;;;8.57;1.40;;;;;;;;;;5071886;28;20045;-78
2021/12/25 01:21:08;;;;;;;3.20;1.30;;;;;;;;;;5070396;28;20052;-78
2021/12/25 01:39:46;;;;;;;5.50;1.40;;;;;;;;;;5070183;28;20056;-79
2021/12/25 01:47:53;;;;;;;7.85;1.35;;;;;;;;;;5034853;28;20044;-79
2021/12/25 01:50:21;;;;;;;3.75;1.30;;;;;;;;;;5053870;28;20048;-79
2021/12/25 01:52:47;;;;;;;4.20;1.10;;;;;;;;;;5069882;28;20074;-78
2021/12/25 01:55:15;;;;;;;1.55;0.50;;;;;;;;;;5070080;28;20085;-78
2021/12/25 01:57:41;;;;;;;5.68;1.33;;;;;;;;;;5069379;28;20048;-78
2021/12/25 02:00:12;;;;;;;4.03;1.27;;;;;;;;;;5069953;28;20385;-77
2021/12/25 02:02:38;;;;;;;1.52;0.55;;;;;;;;;;5069424;28;20400;-78
2021/12/25 02:05:04;;;;;;;3.72;0.82;;;;;;;;;;5070969;28;20505;-78
2021/12/25 02:07:31;;;;;;;4.10;1.00;;;;;;;;;;5053045;28;20127;-79
2021/12/25 02:09:57;;;;;;;6.32;0.98;;;;;;;;;;5069612;28;20539;-79
2021/12/25 02:12:23;;;;;;;4.47;0.68;;;;;;;;;;5069099;28;20055;-79
2021/12/25 02:14:51;;;;;;;3.92;0.90;;;;;;;;;;5053150;28;20044;-79
2021/12/25 02:17:32;;;;;;;3.92;0.90;;;;;;;;;;5036540;28;20068;-78
2021/12/25 02:20:09;;;;;;;3.28;0.90;;;;;;;;;;5069763;28;20438;-80
2021/12/25 02:22:36;;;;;;;5.72;1.23;;;;;;;;;;5069238;28;20454;-80
2021/12/25 02:25:02;;;;;;;3.92;0.80;;;;;;;;;;5053399;28;20534;-78
2021/12/25 02:27:28;;;;;;;1.75;0.80;;;;;;;;;;5069105;28;20535;-78
2021/12/25 02:29:55;;;;;;;5.50;0.93;;;;;;;;;;5069186;28;20055;-79
2021/12/25 02:32:21;;;;;;;6.32;0.77;;;;;;;;;;5070417;28;20047;-80
2021/12/25 02:34:49;;;;;;;1.63;0.70;;;;;;;;;;5069094;28;20048;-80
2021/12/25 02:37:15;;;;;;;8.15;1.10;;;;;;;;;;5069009;28;20044;-78
2021/12/25 02:39:41;;;;;;;5.00;1.10;;;;;;;;;;5068848;28;20047;-81
2021/12/25 02:42:08;;;;;;;4.40;0.80;;;;;;;;;;5052715;28;20037;-79
2021/12/25 02:44:34;;;;;;;3.38;1.00;;;;;;;;;;5070119;28;20044;-79
2021/12/25 02:47:09;;;;;;;2.38;0.70;;;;;;;;;;5069330;28;20048;-80
2021/12/25 02:49:35;;;;;;;3.88;0.82;;;;;;;;;;5070164;28;20097;-80
2021/12/25 02:52:01;;;;;;;4.88;1.08;;;;;;;;;;5052951;28;20040;-79
2021/12/25 02:54:27;;;;;;;4.88;0.75;;;;;;;;;;5069052;28;20048;-79
2021/12/25 02:56:53;;;;;;;5.00;0.85;;;;;;;;;;5069301;28;20392;-79
2021/12/25 02:59:20;;;;;;;5.18;0.90;;;;;;;;;;5102955;28;20036;-82
2021/12/25 03:01:46;;;;;;;2.38;0.90;;;;;;;;;;5063293;28;20048;-80
2021/12/25 03:04:12;;;;;;;2.88;0.80;;;;;;;;;;5067095;28;20397;-80
2021/12/25 03:06:39;;;;;;;4.13;0.80;;;;;;;;;;5066263;28;20109;-79
2021/12/25 03:09:05;;;;;;;2.33;0.70;;;;;;;;;;5068477;28;20048;-83
2021/12/25 03:11:33;;;;;;;6.05;0.80;;;;;;;;;;5068314;28;20044;-81
2021/12/25 03:14:11;;;;;;;5.07;0.80;;;;;;;;;;5052697;28;20059;-80
2021/12/25 03:16:38;;;;;;;3.70;0.98;;;;;;;;;;5068602;28;20083;-83
2021/12/25 03:19:07;;;;;;;30.60;1.35;;;;;;;;;;5068407;28;20106;-84
2021/12/25 03:21:33;;;;;;;2.30;0.70;;;;;;;;;;5050722;28;20075;-84
2021/12/25 03:24:00;;;;;;;3.90;0.75;;;;;;;;;;5048420;28;20049;-81
2021/12/25 03:26:26;;;;;;;4.35;1.00;;;;;;;;;;5048062;28;20064;-81
2021/12/25 03:28:53;;;;;;;7.03;1.00;;;;;;;;;;5048134;28;20127;-80
2021/12/25 03:31:21;;;;;;;2.90;0.95;;;;;;;;;;5049635;28;20044;-81
2021/12/25 03:33:54;;;;;;;1.80;0.80;;;;;;;;;;5048444;28;20049;-84
2021/12/25 03:36:21;;;;;;;4.32;0.85;;;;;;;;;;5048819;28;20037;-82
2021/12/25 03:38:48;;;;;;;4.88;0.90;;;;;;;;;;5048288;28;20476;-81
2021/12/25 03:41:14;;;;;;;4.03;0.75;;;;;;;;;;5048924;28;20409;-87
2021/12/25 03:43:41;;;;;;;2.80;0.85;;;;;;;;;;5049722;28;20041;-80
2021/12/25 03:46:09;;;;;;;3.22;0.73;;;;;;;;;;5049687;28;20041;-80
2021/12/25 03:59:04;;;;;;;3.58;1.00;;;;;;;;;;5053930;28;20049;-81
2021/12/25 04:04:18;;;;;;;1.92;0.75;;;;;;;;;;5053715;28;20493;-83
2021/12/25 04:06:51;;;;;;;1.25;0.55;;;;;;;;;;5051207;28;20127;-83
2021/12/25 04:09:26;;;;;;;2.25;1.08;;;;;;;;;;5051998;28;20048;-82
2021/12/25 04:11:53;;;;;;;5.00;0.93;;;;;;;;;;5051524;28;20110;-84
2021/12/25 04:14:19;;;;;;;3.35;0.75;;;;;;;;;;5052226;28;20139;-80
2021/12/25 04:16:46;;;;;;;2.80;1.23;;;;;;;;;;5053421;28;20085;-82
2021/12/25 04:19:12;;;;;;;1.95;0.60;;;;;;;;;;5053778;28;20437;-81
2021/12/25 04:21:47;;;;;;;3.42;0.80;;;;;;;;;;5053281;28;20045;-81
2021/12/25 04:24:13;;;;;;;3.70;1.00;;;;;;;;;;5053340;28;20052;-83
2021/12/25 04:26:42;;;;;;;2.03;0.60;;;;;;;;;;5051305;28;20126;-81
2021/12/25 04:29:33;;;;;;;2.17;0.63;;;;;;;;;;5054607;28;20404;-81
2021/12/25 05:04:23;;;;;;;1.52;0.57;;;;;;;;;;5102239;28;20389;-81
2021/12/25 05:06:49;;;;;;;1.98;0.80;;;;;;;;;;5072072;28;20056;-79
2021/12/25 05:09:16;;;;;;;2.05;0.70;;;;;;;;;;5073427;28;20051;-79
2021/12/25 05:11:42;;;;;;;1.88;0.60;;;;;;;;;;5056098;28;20545;-80
2021/12/25 05:14:08;;;;;;;1.60;0.55;;;;;;;;;;5074716;28;20067;-79
2021/12/25 05:16:37;;;;;;;4.05;0.70;;;;;;;;;;5056485;28;20044;-81
2021/12/25 05:19:04;;;;;;;3.05;0.80;;;;;;;;;;5073243;28;20449;-80
2021/12/25 05:21:30;;;;;;;2.25;0.45;;;;;;;;;;5073657;28;20041;-81
2021/12/25 05:23:58;;;;;;;2.15;0.50;;;;;;;;;;5073809;28;20063;-80
2021/12/25 05:26:24;;;;;;;1.33;0.70;;;;;;;;;;5073868;28;20047;-80
2021/12/25 05:28:58;;;;;;;1.65;0.60;;;;;;;;;;5074630;28;20487;-81
2021/12/25 05:31:25;;;;;;;1.67;0.90;;;;;;;;;;5073612;28;20461;-80
2021/12/25 05:33:51;;;;;;;3.38;0.95;;;;;;;;;;5070480;28;20131;-87
2021/12/25 05:36:17;;;;;;;4.68;0.98;;;;;;;;;;5070664;28;20403;-86
2021/12/25 05:38:43;;;;;;;2.88;0.80;;;;;;;;;;5070258;28;20045;-86
2021/12/25 05:41:11;;;;;;;2.95;0.98;;;;;;;;;;5070380;28;20041;-87
2021/12/25 05:43:37;;;;;;;1.40;0.55;;;;;;;;;;5072532;28;20434;-79
2021/12/25 05:46:03;;;;;;;2.65;0.90;;;;;;;;;;5070659;28;20045;-87
2021/12/25 05:48:35;;;;;;;2.85;0.70;;;;;;;;;;5054742;28;20044;-80
2021/12/25 05:51:01;;;;;;;2.75;0.80;;;;;;;;;;5055563;28;20101;-80
2021/12/25 05:53:27;;;;;;;3.08;1.00;;;;;;;;;;5071710;28;20048;-80
2021/12/25 05:55:53;;;;;;;3.50;1.10;;;;;;;;;;5073040;28;20074;-80
2021/12/25 05:58:19;;;;;;;2.83;0.75;;;;;;;;;;5072258;28;20059;-80
2021/12/25 06:00:46;;;;;;;2.20;0.98;;;;;;;;;;5072372;28;20076;-80
2021/12/25 06:03:12;;;;;;;3.25;0.98;;;;;;;;;;5073206;28;20488;-81
2021/12/25 06:05:38;;;;;;;5.53;1.10;;;;;;;;;;5073190;28;20067;-81
2021/12/25 06:08:05;;;;;;;4.40;0.98;;;;;;;;;;5073684;28;20044;-80
2021/12/25 06:10:31;;;;;;;2.17;0.90;;;;;;;;;;5071669;28;20044;-80
2021/12/25 06:12:59;;;;;;;3.67;0.90;;;;;;;;;;5071477;28;20048;-80
2021/12/25 06:15:26;;;;;;;2.60;0.70;;;;;;;;;;5071306;28;20136;-80
2021/12/25 06:17:52;;;;;;;1.63;0.60;;;;;;;;;;5071274;28;20453;-80
2021/12/25 06:20:18;;;;;;;1.40;0.52;;;;;;;;;;5070601;28;20130;-79
2021/12/25 06:22:45;;;;;;;1.95;0.80;;;;;;;;;;5072595;28;20492;-80
2021/12/25 06:25:11;;;;;;;2.67;0.63;;;;;;;;;;5072001;28;20044;-79
2021/12/25 06:27:37;;;;;;;1.67;0.82;;;;;;;;;;5071851;28;20050;-81
2021/12/25 06:30:04;;;;;;;6.30;0.82;;;;;;;;;;5071819;28;20044;-80
2021/12/25 06:32:30;;;;;;;2.72;1.15;;;;;;;;;;5071232;28;20571;-88
2021/12/25 06:34:56;;;;;;;1.70;0.52;;;;;;;;;;5070093;28;20036;-83
2021/12/25 06:37:24;;;;;;;1.90;0.85;;;;;;;;;;5053523;28;20037;-87
2021/12/25 06:39:50;;;;;;;2.00;1.00;;;;;;;;;;5069414;28;20085;-85
2021/12/25 06:42:16;;;;;;;2.25;1.00;;;;;;;;;;5052955;28;20044;-86
2021/12/25 06:44:43;;;;;;;3.35;1.00;;;;;;;;;;5069394;28;20037;-79
2021/12/25 06:47:09;;;;;;;4.05;0.75;;;;;;;;;;5071977;28;20041;-79
2021/12/25 06:49:35;;;;;;;1.20;0.68;;;;;;;;;;5070956;28;20076;-79
2021/12/25 06:52:01;;;;;;;2.10;1.00;;;;;;;;;;5054234;28;20048;-79
2021/12/25 06:54:28;;;;;;;2.55;0.85;;;;;;;;;;5071009;28;20037;-79
2021/12/25 06:56:54;;;;;;;3.47;1.05;;;;;;;;;;5071871;28;20043;-79
2021/12/25 06:59:23;;;;;;;2.35;1.08;;;;;;;;;;5071596;28;20114;-79
2021/12/25 07:01:50;;;;;;;2.03;0.93;;;;;;;;;;5071307;28;20549;-78
2021/12/25 07:04:17;;;;;;;1.33;0.40;;;;;;;;;;5069616;28;20813;-87
2021/12/25 07:06:43;;;;;;;4.78;0.80;;;;;;;;;;5070547;28;20048;-78
2021/12/25 07:09:10;;;;;;;5.32;1.10;;;;;;;;;;5068387;28;20237;-87
2021/12/25 07:11:36;;;;;;;1.58;0.60;;;;;;;;;;5068480;28;20488;-84
2021/12/25 07:14:04;;;;;;;2.80;0.57;;;;;;;;;;5070814;28;20101;-78
2021/12/25 07:16:31;;;;;;;1.17;0.55;;;;;;;;;;5068149;28;20119;-87
2021/12/25 07:18:57;;;;;;;1.15;0.47;;;;;;;;;;5068235;28;20048;-87
2021/12/25 07:21:23;;;;;;;0.80;0.40;;;;;;;;;;5068473;28;20123;-77
2021/12/25 07:23:49;;;;;;;0.47;0.40;;;;;;;;;;5069775;28;20086;-78
2021/12/25 07:26:17;;;;;;;1.55;0.63;;;;;;;;;;5070530;28;20084;-87
2021/12/25 07:28:44;;;;;;;1.95;0.60;;;;;;;;;;5067897;28;20048;-87
2021/12/25 07:31:10;;;;;;;2.22;0.63;;;;;;;;;;5068125;28;20045;-86
2021/12/25 07:33:37;;;;;;;2.75;0.63;;;;;;;;;;5070227;28;20071;-78
2021/12/25 07:36:03;;;;;;;1.30;0.47;;;;;;;;;;5070361;28;20042;-87
2021/12/25 07:38:30;;;;;;;2.20;0.55;;;;;;;;;;5067588;28;20043;-87
2021/12/25 07:40:56;;;;;;;1.63;0.77;;;;;;;;;;5051836;28;20538;-87
2021/12/25 07:43:22;;;;;;;1.83;0.50;;;;;;;;;;5070046;28;20119;-79
2021/12/25 07:45:51;;;;;;;2.88;0.90;;;;;;;;;;5071352;28;20048;-79
2021/12/25 07:48:19;;;;;;;2.25;0.70;;;;;;;;;;5069247;28;20056;-85
2021/12/25 07:50:46;;;;;;;2.47;1.15;;;;;;;;;;5068009;28;20123;-85
2021/12/25 07:53:12;;;;;;;1.65;0.63;;;;;;;;;;5068069;28;20042;-87
2021/12/25 07:55:38;;;;;;;3.40;0.70;;;;;;;;;;5069066;28;20105;-84
2021/12/25 07:58:04;;;;;;;1.30;0.50;;;;;;;;;;5051221;28;20123;-87
2021/12/25 08:00:30;;;;;;;0.90;0.50;;;;;;;;;;5067529;28;20051;-87
2021/12/25 08:02:56;;;;;;;0.38;0.30;;;;;;;;;;5067894;28;20041;-86
2021/12/25 08:05:22;;;;;;;1.52;0.22;;;;;;;;;;5070631;28;20052;-78
2021/12/25 08:07:49;;;;;;;0.98;0.40;;;;;;;;;;5068819;28;20503;-87
2021/12/25 08:10:18;;;;;;;0.65;0.35;;;;;;;;;;5051621;28;20352;-85
2021/12/25 08:12:44;;;;;;;2.67;0.43;;;;;;;;;;5067403;28;20048;-86
2021/12/25 08:15:11;;;;;;;1.80;0.30;;;;;;;;;;5069983;28;20040;-79
2021/12/25 08:17:37;;;;;;;1.13;0.50;;;;;;;;;;5053576;28;20040;-78
2021/12/25 08:20:04;;;;;;;0.98;0.40;;;;;;;;;;5070176;28;20098;-80
2021/12/25 08:22:30;;;;;;;0.75;0.32;;;;;;;;;;5071754;28;20032;-79
2021/12/25 08:24:56;;;;;;;1.67;0.65;;;;;;;;;;5070856;28;20036;-78
2021/12/25 08:27:23;;;;;;;0.98;0.40;;;;;;;;;;5071960;28;20067;-79
2021/12/25 08:29:49;;;;;;;3.30;0.47;;;;;;;;;;5052677;28;20063;-81
2021/12/25 08:32:15;;;;;;;0.70;0.32;;;;;;;;;;5070790;28;20459;-80
2021/12/25 08:34:42;;;;;;;2.58;0.40;;;;;;;;;;5055232;28;20044;-78
2021/12/25 08:37:09;;;;;;;1.83;0.52;;;;;;;;;;5074419;28;20041;-78
2021/12/25 08:39:35;;;;;;;3.65;0.47;;;;;;;;;;5074214;28;20036;-78
2021/12/25 08:42:03;;;;;;;0.90;0.30;;;;;;;;;;5073699;28;20492;-80
2021/12/25 08:44:52;;;;;;;2.10;0.50;;;;;;;;;;5074856;28;20120;-83
2021/12/25 08:47:18;;;;;;;0.70;0.35;;;;;;;;;;5071254;28;20049;-82
2021/12/25 08:49:44;;;;;;;3.10;0.57;;;;;;;;;;5054524;28;20124;-84
2021/12/25 08:52:12;;;;;;;0.43;0.32;;;;;;;;;;5054742;28;20064;-84
2021/12/25 08:54:39;;;;;;;1.98;0.50;;;;;;;;;;5072367;28;20040;-86
2021/12/25 08:57:05;;;;;;;2.40;0.70;;;;;;;;;;5071327;28;20040;-86
2021/12/25 08:59:33;;;;;;;1.65;0.40;;;;;;;;;;5074068;28;20041;-86
2021/12/25 09:02:01;;;;;;;6.93;0.57;;;;;;;;;;5038618;28;20051;-86
2021/12/25 09:04:27;;;;;;;2.10;0.60;;;;;;;;;;5054441;28;20052;-79
2021/12/25 09:06:53;;;;;;;1.10;0.50;;;;;;;;;;5070661;28;20052;-85
2021/12/25 09:09:20;;;;;;;4.72;0.82;;;;;;;;;;5071272;28;20141;-83
2021/12/25 09:11:46;;;;;;;2.63;0.50;;;;;;;;;;5071983;28;20037;-87
2021/12/25 09:14:12;;;;;;;3.65;0.60;;;;;;;;;;5072315;28;20080;-84
2021/12/25 09:16:39;;;;;;;2.83;0.60;;;;;;;;;;5074685;28;20082;-77
2021/12/25 09:19:05;;;;;;;4.90;0.98;;;;;;;;;;5072997;28;20044;-82
2021/12/25 09:21:31;;;;;;;3.60;0.50;;;;;;;;;;5053632;28;20128;-87
2021/12/25 09:23:57;;;;;;;2.95;0.50;;;;;;;;;;5073338;28;20040;-79
2021/12/25 09:26:23;;;;;;;2.35;0.50;;;;;;;;;;5073376;28;20050;-80
2021/12/25 09:28:50;;;;;;;1.10;0.40;;;;;;;;;;5073560;28;20396;-79
2021/12/25 09:31:16;;;;;;;1.77;0.38;;;;;;;;;;5073450;28;20098;-80
2021/12/25 09:33:42;;;;;;;2.88;0.55;;;;;;;;;;5073766;28;20076;-80
2021/12/25 09:36:08;;;;;;;3.15;0.50;;;;;;;;;;5072699;28;20040;-79
2021/12/25 09:38:35;;;;;;;2.70;0.60;;;;;;;;;;5072752;28;20036;-86
2021/12/25 09:41:02;;;;;;;2.13;0.63;;;;;;;;;;5071125;28;20044;-86
2021/12/25 09:43:28;;;;;;;3.38;0.50;;;;;;;;;;5073532;28;20361;-79
2021/12/25 09:45:55;;;;;;;2.13;0.50;;;;;;;;;;5038648;28;20502;-79
2021/12/25 09:48:21;;;;;;;2.70;0.50;;;;;;;;;;5072829;28;20044;-80
2021/12/25 09:50:47;;;;;;;2.42;0.25;;;;;;;;;;5073384;28;20067;-79
2021/12/25 09:53:14;;;;;;;1.45;0.50;;;;;;;;;;5072302;28;20071;-85
2021/12/25 09:55:42;;;;;;;0.98;0.40;;;;;;;;;;5070128;28;20118;-86
2021/12/25 09:58:09;;;;;;;1.40;0.40;;;;;;;;;;5053348;28;20079;-84
2021/12/25 10:00:37;;;;;;;2.72;0.50;;;;;;;;;;5071832;28;20442;-83
2021/12/25 10:03:03;;;;;;;1.73;0.50;;;;;;;;;;5071709;28;20048;-78
2021/12/25 10:05:37;;;;;;;1.33;0.60;;;;;;;;;;5071257;28;20504;-77
2021/12/25 10:08:03;;;;;;;2.58;0.40;;;;;;;;;;5071628;28;20090;-83
2021/12/25 10:10:56;;;;;;;1.08;0.40;;;;;;;;;;5071508;28;20044;-77
2021/12/25 10:13:22;;;;;;;2.28;0.60;;;;;;;;;;5072155;28;20056;-80
2021/12/25 10:15:50;;;;;;;1.35;0.47;;;;;;;;;;5070098;28;20040;-85
2021/12/25 10:18:24;;;;;;;2.00;0.40;;;;;;;;;;5070110;28;20447;-84
2021/12/25 10:20:50;;;;;;;2.22;0.40;;;;;;;;;;5069607;28;20079;-82
2021/12/25 10:23:22;;;;;;;3.20;0.40;;;;;;;;;;5037344;28;20396;-81
2021/12/25 10:25:59;;;;;;;2.53;0.60;;;;;;;;;;5071408;28;20040;-84
2021/12/25 10:28:31;;;;;;;1.52;0.35;;;;;;;;;;5072369;28;20286;-84
2021/12/25 10:30:59;;;;;;;2.38;0.50;;;;;;;;;;5072101;28;20044;-84
2021/12/25 10:33:28;;;;;;;2.60;0.55;;;;;;;;;;5055371;28;20365;-78
2021/12/25 10:35:57;;;;;;;1.75;0.30;;;;;;;;;;5071001;28;20522;-85
2021/12/25 10:38:24;;;;;;;2.28;0.57;;;;;;;;;;5073306;28;20052;-80
2021/12/25 10:40:50;;;;;;;1.63;0.40;;;;;;;;;;5055777;28;20063;-82
2021/12/25 10:43:21;;;;;;;2.40;0.50;;;;;;;;;;5072214;28;20071;-81
2021/12/25 10:46:00;;;;;;;0.60;0.30;;;;;;;;;;5071760;28;20052;-83
2021/12/25 10:48:28;;;;;;;4.10;0.77;;;;;;;;;;5072039;28;20055;-80
2021/12/25 10:50:54;;;;;;;2.20;0.30;;;;;;;;;;5071147;28;20447;-84
2021/12/25 10:53:22;;;;;;;2.72;0.75;;;;;;;;;;5054469;28;20040;-79
2021/12/25 10:55:48;;;;;;;1.55;0.50;;;;;;;;;;5071124;28;20040;-83
2021/12/25 10:58:19;;;;;;;2.35;0.70;;;;;;;;;;5070989;28;20063;-85
2021/12/25 11:00:49;;;;;;;2.28;0.40;;;;;;;;;;5070441;28;20037;-85
2021/12/25 11:03:15;;;;;;;2.05;0.65;;;;;;;;;;5069676;28;20512;-83
2021/12/25 11:05:46;;;;;;;3.13;0.60;;;;;;;;;;5069375;28;20048;-83
2021/12/25 11:08:19;;;;;;;2.35;0.50;;;;;;;;;;5068708;28;20040;-84
2021/12/25 11:10:48;;;;;;;3.90;0.60;;;;;;;;;;5068494;28;20059;-83
2021/12/25 11:13:21;;;;;;;1.88;0.73;;;;;;;;;;5069091;28;20044;-84
2021/12/25 11:15:48;;;;;;;1.05;0.50;;;;;;;;;;5070147;28;20044;-81
2021/12/25 11:18:15;;;;;;;4.07;0.70;;;;;;;;;;5070362;28;20041;-85
2021/12/25 11:20:43;;;;;;;2.10;0.50;;;;;;;;;;5070148;28;20047;-83
2021/12/25 11:23:10;;;;;;;3.88;0.57;;;;;;;;;;5068891;28;20128;-83
2021/12/25 11:25:38;;;;;;;6.65;0.32;;;;;;;;;;5069567;28;20127;-82
2021/12/25 11:28:10;;;;;;;2.28;0.40;;;;;;;;;;5070054;28;20036;-78
2021/12/25 11:30:38;;;;;;;2.63;0.63;;;;;;;;;;5071190;28;20459;-79
2021/12/25 11:33:04;;;;;;;1.65;0.60;;;;;;;;;;5073034;28;20044;-78
2021/12/25 11:35:33;;;;;;;1.70;0.40;;;;;;;;;;5070897;28;20037;-84
2021/12/25 11:38:00;;;;;;;1.42;0.60;;;;;;;;;;5052197;28;20480;-83
2021/12/25 11:40:27;;;;;;;4.30;0.47;;;;;;;;;;5051531;28;20048;-82
2021/12/25 11:42:56;;;;;;;4.82;0.60;;;;;;;;;;5051284;28;20047;-82
2021/12/25 11:45:25;;;;;;;0.93;0.50;;;;;;;;;;5068300;28;20045;-84
2021/12/25 11:47:52;;;;;;;1.17;0.50;;;;;;;;;;5068716;28;20044;-78
2021/12/25 11:50:39;;;;;;;2.92;0.70;;;;;;;;;;5071694;28;20082;-80
2021/12/25 11:53:31;;;;;;;0.60;0.28;;;;;;;;;;5071714;28;20537;-77
2021/12/25 11:58:42;;;;;;;1.45;0.60;;;;;;;;;;5072181;28;20396;-80
2021/12/25 12:01:17;;;;;;;0.35;0.30;;;;;;;;;;5054749;28;20040;-79
2021/12/25 12:03:46;;;;;;;1.55;0.60;;;;;;;;;;5054377;28;20095;-78
2021/12/25 12:06:13;;;;;;;3.92;0.60;;;;;;;;;;5071367;28;20549;-78
2021/12/25 12:08:54;;;;;;;2.15;0.57;;;;;;;;;;5071895;28;20052;-79
2021/12/25 12:11:22;;;;;;;1.20;0.50;;;;;;;;;;5075316;28;20098;-79
2021/12/25 12:13:48;;;;;;;2.45;0.80;;;;;;;;;;5074535;28;20531;-78
2021/12/25 12:16:14;;;;;;;0.22;0.22;;;;;;;;;;5076278;28;20044;-79
2021/12/25 12:18:41;;;;;;;1.85;0.60;;;;;;;;;;5074894;28;20117;-79
2021/12/25 12:21:16;;;;;;;3.70;0.60;;;;;;;;;;5072700;28;20056;-83
2021/12/25 12:23:56;;;;;;;1.40;0.43;;;;;;;;;;5055250;28;20485;-85
2021/12/25 12:26:57;;;;;;;5.07;0.57;;;;;;;;;;5072912;28;20048;-84
2021/12/25 12:29:38;;;;;;;3.95;0.88;;;;;;;;;;5037110;28;20512;-79
2021/12/25 12:32:26;;;;;;;1.52;0.63;;;;;;;;;;5067912;28;20056;-84
2021/12/25 12:34:53;;;;;;;4.00;0.40;;;;;;;;;;5072717;28;20049;-85
2021/12/25 12:37:19;;;;;;;1.80;0.63;;;;;;;;;;5072152;28;20048;-80
2021/12/25 12:40:07;;;;;;;1.60;0.68;;;;;;;;;;5075496;28;20111;-79
2021/12/25 12:42:48;;;;;;;3.92;0.63;;;;;;;;;;5074687;28;20522;-79
2021/12/25 12:45:28;;;;;;;1.63;0.80;;;;;;;;;;5057595;28;20094;-79
2021/12/25 12:48:08;;;;;;;1.83;0.60;;;;;;;;;;5055334;28;20504;-80
2021/12/25 12:50:35;;;;;;;4.07;0.82;;;;;;;;;;5073250;28;20058;-86
2021/12/25 12:53:02;;;;;;;1.75;0.60;;;;;;;;;;5072200;28;20479;-84
2021/12/25 12:55:30;;;;;;;2.90;0.60;;;;;;;;;;5071776;28;20426;-85
2021/12/25 12:58:15;;;;;;;2.15;0.70;;;;;;;;;;5070985;28;20123;-84
2021/12/25 13:00:42;;;;;;;1.95;0.60;;;;;;;;;;5071929;28;20369;-79
2021/12/25 13:03:08;;;;;;;3.63;0.90;;;;;;;;;;5071173;28;20044;-85
2021/12/25 13:05:40;;;;;;;2.85;0.90;;;;;;;;;;5070850;28;20091;-84
2021/12/25 13:08:27;;;;;;;2.22;0.47;;;;;;;;;;5054620;28;20048;-85
2021/12/25 13:10:53;;;;;;;;;;;;;;;;;;5073129;28;20039;-84
2021/12/25 13:13:19;;;;;;;3.95;0.80;;;;;;;;;;5070836;28;20002;-84
2021/12/25 13:15:48;;;;;;;3.55;0.98;;;;;;;;;;5071122;28;20539;-84
2021/12/25 13:18:15;;;;;;;4.13;0.82;;;;;;;;;;5073934;28;20511;-79
2021/12/25 13:20:51;;;;;;;2.65;0.70;;;;;;;;;;5055595;28;20037;-79
2021/12/25 13:23:22;;;;;;;3.00;0.65;;;;;;;;;;5074174;28;20500;-83
2021/12/25 13:25:53;;;;;;;1.40;0.55;;;;;;;;;;5072980;28;20037;-84
2021/12/25 13:28:19;;;;;;;1.30;0.60;;;;;;;;;;5055228;28;20468;-84
2021/12/25 13:30:49;;;;;;;4.20;0.80;;;;;;;;;;5071181;28;20074;-83
2021/12/25 13:33:15;;;;;;;2.53;1.08;;;;;;;;;;5071833;28;20063;-83
2021/12/25 13:35:42;;;;;;;2.65;0.73;;;;;;;;;;5072088;28;20400;-84
2021/12/25 13:38:09;;;;;;;4.30;0.77;;;;;;;;;;5074103;28;20044;-81
2021/12/25 13:40:37;;;;;;;5.55;1.00;;;;;;;;;;5073721;28;20052;-79
2021/12/25 13:43:10;;;;;;;2.17;0.50;;;;;;;;;;5073182;28;20052;-79
2021/12/25 13:45:37;;;;;;;1.92;0.70;;;;;;;;;;5056176;28;20177;-84
2021/12/25 13:48:04;;;;;;;3.75;0.80;;;;;;;;;;5070231;28;20059;-83
2021/12/25 13:50:31;;;;;;;1.63;0.70;;;;;;;;;;5074013;28;20040;-84
2021/12/25 13:53:00;;;;;;;1.23;0.60;;;;;;;;;;5070468;28;20091;-84
2021/12/25 13:55:28;;;;;;;1.85;0.57;;;;;;;;;;5071642;28;20036;-85
2021/12/25 13:57:57;;;;;;;1.88;0.85;;;;;;;;;;5073276;28;20495;-79
2021/12/25 14:00:28;;;;;;;2.45;0.80;;;;;;;;;;5072883;28;20047;-79
2021/12/25 14:02:59;;;;;;;1.17;0.52;;;;;;;;;;5073280;28;20037;-83
2021/12/25 14:05:26;;;;;;;0.85;0.52;;;;;;;;;;5071458;28;20062;-87
2021/12/25 14:07:53;;;;;;;2.92;0.68;;;;;;;;;;5070531;28;20068;-84
2021/12/25 14:10:23;;;;;;;1.83;0.77;;;;;;;;;;5072852;28;20036;-82
2021/12/25 14:12:51;;;;;;;3.38;0.77;;;;;;;;;;5069611;28;20040;-83
2021/12/25 14:15:18;;;;;;;4.13;0.80;;;;;;;;;;5072947;28;20059;-81
2021/12/25 14:17:45;;;;;;;3.13;1.00;;;;;;;;;;5072450;28;20045;-84
2021/12/25 14:20:19;;;;;;;1.13;0.50;;;;;;;;;;5072193;28;20036;-79
2021/12/25 14:22:47;;;;;;;1.38;0.60;;;;;;;;;;5055312;28;20113;-80
2021/12/25 14:25:20;;;;;;;4.05;0.93;;;;;;;;;;5073383;28;20120;-77
2021/12/25 14:27:59;;;;;;;2.55;1.30;;;;;;;;;;5055376;28;20459;-78
2021/12/25 14:30:25;;;;;;;2.92;1.00;;;;;;;;;;5070654;28;20403;-85
2021/12/25 14:32:51;;;;;;;2.85;0.95;;;;;;;;;;5070239;28;20074;-84
2021/12/25 14:35:18;;;;;;;4.03;1.13;;;;;;;;;;5070708;28;20482;-84
2021/12/25 14:37:44;;;;;;;3.60;0.75;;;;;;;;;;5071575;28;20390;-83
2021/12/25 14:40:15;;;;;;;2.35;1.02;;;;;;;;;;5068980;28;20172;-83
2021/12/25 14:42:43;;;;;;;2.45;0.60;;;;;;;;;;5070127;28;20519;-83
2021/12/25 14:45:10;;;;;;;3.22;0.90;;;;;;;;;;5068993;28;20098;-83
2021/12/25 14:47:50;;;;;;;3.30;0.80;;;;;;;;;;5052576;28;20040;-84
2021/12/25 14:50:17;;;;;;;4.97;0.90;;;;;;;;;;5070441;28;20032;-82
2021/12/25 14:52:43;;;;;;;1.73;0.60;;;;;;;;;;5069041;28;20114;-83
2021/12/25 14:55:14;;;;;;;2.35;0.80;;;;;;;;;;5070414;28;20090;-83
2021/12/25 14:57:40;;;;;;;3.90;0.60;;;;;;;;;;5070916;28;20051;-84
2021/12/25 15:00:07;;;;;;;1.67;0.60;;;;;;;;;;5070334;28;20428;-79
2021/12/25 15:02:33;;;;;;;1.88;0.80;;;;;;;;;;5071010;28;20036;-79
2021/12/25 15:04:59;;;;;;;2.55;0.70;;;;;;;;;;5054506;28;20059;-78
2021/12/25 15:07:25;;;;;;;2.00;1.00;;;;;;;;;;5069135;28;20063;-85
2021/12/25 15:09:56;;;;;;;1.85;0.75;;;;;;;;;;5054110;28;20044;-79
2021/12/25 15:12:42;;;;;;;1.90;0.60;;;;;;;;;;5070354;28;20055;-85
2021/12/25 15:15:09;;;;;;;3.25;0.90;;;;;;;;;;5052236;28;20037;-84
2021/12/25 15:17:36;;;;;;;3.22;0.85;;;;;;;;;;5052139;28;20033;-84
2021/12/25 15:20:08;;;;;;;3.85;0.80;;;;;;;;;;5068199;28;20123;-84
2021/12/25 15:22:34;;;;;;;1.90;0.80;;;;;;;;;;5069102;28;20051;-79
2021/12/25 15:25:05;;;;;;;4.85;0.82;;;;;;;;;;5071390;28;20041;-78
2021/12/25 15:27:31;;;;;;;4.45;1.13;;;;;;;;;;5072167;28;20396;-79
2021/12/25 15:29:58;;;;;;;3.22;0.82;;;;;;;;;;5068189;28;20051;-85
2021/12/25 15:32:31;;;;;;;1.27;0.50;;;;;;;;;;5070226;28;20044;-85
2021/12/25 15:34:58;;;;;;;2.83;0.90;;;;;;;;;;5069959;28;20428;-85
2021/12/25 15:37:25;;;;;;;3.95;0.88;;;;;;;;;;5068927;28;20059;-85
2021/12/25 15:39:52;;;;;;;3.90;0.98;;;;;;;;;;5069972;28;20044;-85
2021/12/25 15:42:19;;;;;;;2.67;0.90;;;;;;;;;;5068781;28;20067;-85
2021/12/25 15:44:46;;;;;;;3.15;0.82;;;;;;;;;;5070273;28;20145;-85
2021/12/25 15:47:12;;;;;;;1.58;0.73;;;;;;;;;;5076882;28;20040;-85
2021/12/25 15:49:38;;;;;;;4.82;0.90;;;;;;;;;;5077118;28;20094;-79
2021/12/25 15:52:05;;;;;;;5.18;1.20;;;;;;;;;;5074603;28;20049;-85
2021/12/25 15:54:31;;;;;;;2.40;0.90;;;;;;;;;;5073385;28;20046;-85
2021/12/25 15:56:58;;;;;;;1.23;0.50;;;;;;;;;;5074012;28;20048;-79
2021/12/25 15:59:25;;;;;;;5.13;0.82;;;;;;;;;;5076830;28;20044;-79
2021/12/25 16:01:52;;;;;;;3.30;0.95;;;;;;;;;;5055977;28;20036;-85
2021/12/25 16:04:18;;;;;;;2.85;0.98;;;;;;;;;;5072986;28;20056;-85
2021/12/25 16:06:44;;;;;;;2.92;0.77;;;;;;;;;;5055673;28;20181;-85
2021/12/25 16:09:11;;;;;;;4.22;0.90;;;;;;;;;;5073267;28;20036;-86